Time;durP1;ratioP1;P1;durP2;ratioP2;P2;SDS_P1;SDS_P2;PMS_P1;PMS_P2;Temp;Humidity;BMP_temperature;BMP_pressure;BME280_temperature;BME280_humidity;BME280_pressure;Samples;Min_cycle;Max_cycle;Signal;HPM_P1;HPM_P2
2021/09/26 00:00:00;;;;;;;5.68;4.38;;;23.10;62.70;;;;;;5132269;28;20480;-58
2021/09/26 00:02:26;;;;;;;5.05;4.07;;;23.10;62.70;;;;;;5133012;28;20087;-58
2021/09/26 00:04:52;;;;;;;6.22;4.75;;;23.00;62.80;;;;;;5132125;28;20391;-58
2021/09/26 00:07:18;;;;;;;5.00;3.55;;;23.10;62.80;;;;;;5131859;28;20103;-58
2021/09/26 00:09:44;;;;;;;4.60;3.83;;;23.00;62.80;;;;;;5132295;28;20102;-58
2021/09/26 00:12:10;;;;;;;4.75;3.90;;;23.00;62.80;;;;;;5131329;28;20031;-59
2021/09/26 00:14:37;;;;;;;5.30;4.25;;;23.00;62.80;;;;;;5132883;28;20434;-58
2021/09/26 00:17:03;;;;;;;4.68;3.67;;;23.00;62.80;;;;;;5131185;28;20027;-58
2021/09/26 00:19:28;;;;;;;5.50;3.40;;;23.00;62.80;;;;;;5133101;28;20023;-58
2021/09/26 00:21:54;;;;;;;5.63;3.30;;;23.00;62.80;;;;;;5131513;28;20031;-58
2021/09/26 00:24:20;;;;;;;6.10;3.97;;;22.90;62.80;;;;;;5132406;28;20353;-58
2021/09/26 00:26:46;;;;;;;6.80;3.72;;;22.90;62.80;;;;;;5132197;28;20098;-58
2021/09/26 00:29:11;;;;;;;5.70;3.90;;;22.90;62.80;;;;;;5131562;28;20023;-58
2021/09/26 00:31:37;;;;;;;4.93;3.75;;;22.90;62.80;;;;;;5132035;28;20032;-58
2021/09/26 00:34:02;;;;;;;5.65;3.70;;;22.90;62.80;;;;;;5131710;28;20031;-59
2021/09/26 00:36:28;;;;;;;6.07;4.00;;;22.90;62.80;;;;;;5132426;28;20085;-58
2021/09/26 00:38:54;;;;;;;4.97;3.72;;;22.90;62.80;;;;;;5132067;28;20027;-58
2021/09/26 00:41:19;;;;;;;5.78;3.70;;;22.90;62.80;;;;;;5131776;28;20028;-58
2021/09/26 00:43:45;;;;;;;4.63;3.63;;;22.90;62.80;;;;;;5132649;28;20448;-59
2021/09/26 00:46:11;;;;;;;6.15;3.53;;;22.90;62.80;;;;;;5130767;28;20387;-59
2021/09/26 00:48:36;;;;;;;4.72;3.78;;;22.90;62.80;;;;;;5113921;28;20027;-58
2021/09/26 00:51:09;;;;;;;5.35;3.40;;;22.90;62.80;;;;;;5131252;28;20080;-58
2021/09/26 00:53:35;;;;;;;4.25;3.60;;;22.90;62.80;;;;;;5132250;28;20106;-58
2021/09/26 00:56:01;;;;;;;4.93;3.90;;;22.90;62.80;;;;;;5131563;28;20557;-58
2021/09/26 00:58:29;;;;;;;4.82;3.50;;;22.90;62.80;;;;;;5131967;28;20365;-58
2021/09/26 01:00:55;;;;;;;4.57;3.75;;;22.90;62.80;;;;;;5131582;28;20047;-58
2021/09/26 01:03:20;;;;;;;5.35;3.85;;;22.90;62.80;;;;;;5133966;27;20033;-58
2021/09/26 01:05:57;;;;;;;4.07;3.63;;;22.90;62.70;;;;;;5136021;27;20463;-58
2021/09/26 01:09:06;;;;;;;5.07;4.10;;;22.90;62.80;;;;;;5132165;27;20356;-58
2021/09/26 01:11:40;;;;;;;5.90;3.80;;;22.90;62.80;;;;;;5124086;27;20118;-58
2021/09/26 01:14:06;;;;;;;4.30;3.25;;;22.90;62.80;;;;;;5134619;27;20027;-58
2021/09/26 01:16:44;;;;;;;4.90;3.50;;;22.90;62.80;;;;;;5135557;27;20028;-59
2021/09/26 01:19:42;;;;;;;5.18;3.58;;;22.80;62.70;;;;;;5134691;27;20358;-58
2021/09/26 01:22:15;;;;;;;4.93;3.38;;;22.80;62.70;;;;;;5134700;27;20027;-58
2021/09/26 01:24:50;;;;;;;4.18;3.47;;;22.90;62.70;;;;;;5135449;27;20046;-58
2021/09/26 01:27:36;;;;;;;5.00;3.80;;;22.80;62.70;;;;;;5134548;27;20027;-58
2021/09/26 01:30:19;;;;;;;5.10;3.63;;;22.80;62.70;;;;;;5134591;27;20023;-58
2021/09/26 01:33:07;;;;;;;5.40;3.97;;;22.80;62.70;;;;;;5135184;27;20050;-58
2021/09/26 01:35:38;;;;;;;5.15;3.55;;;22.80;62.70;;;;;;5135395;27;20031;-58
2021/09/26 01:38:17;;;;;;;4.20;3.50;;;22.80;62.70;;;;;;5134455;27;20027;-59
2021/09/26 01:40:50;;;;;;;4.55;3.78;;;22.80;62.70;;;;;;5134659;27;20101;-58
2021/09/26 01:43:19;;;;;;;4.03;3.38;;;22.80;62.70;;;;;;5134289;27;20257;-59
2021/09/26 01:45:51;;;;;;;4.60;3.50;;;22.80;63.30;;;;;;5134696;27;20051;-58
2021/09/26 01:48:27;;;;;;;6.65;4.00;;;22.80;62.70;;;;;;5134153;27;20111;-58
2021/09/26 01:50:58;;;;;;;5.40;4.05;;;22.80;62.70;;;;;;5134611;27;20062;-58
2021/09/26 01:53:26;;;;;;;4.80;3.97;;;22.80;62.70;;;;;;5134857;27;20027;-58
2021/09/26 01:55:54;;;;;;;4.80;3.67;;;22.80;62.70;;;;;;5134281;27;20039;-58
2021/09/26 01:58:21;;;;;;;5.25;3.53;;;22.80;62.70;;;;;;5133677;27;20031;-58
2021/09/26 02:00:47;;;;;;;3.88;3.28;;;22.80;62.70;;;;;;5135121;27;20043;-58
2021/09/26 02:03:17;;;;;;;4.25;3.53;;;22.80;62.70;;;;;;5133897;27;20035;-58
2021/09/26 02:05:45;;;;;;;7.03;3.90;;;22.80;62.70;;;;;;5134769;27;20031;-58
2021/09/26 02:08:12;;;;;;;5.40;4.15;;;22.80;62.70;;;;;;5133684;27;20027;-58
2021/09/26 02:10:40;;;;;;;4.75;3.78;;;22.80;62.70;;;;;;5134639;27;20147;-58
2021/09/26 02:13:08;;;;;;;4.75;3.85;;;22.80;62.70;;;;;;5133358;27;20031;-58
2021/09/26 02:15:35;;;;;;;5.38;3.83;;;22.80;62.70;;;;;;5133608;27;20039;-58
2021/09/26 02:18:02;;;;;;;5.82;3.22;;;22.80;62.60;;;;;;5133417;27;20038;-58
2021/09/26 02:20:29;;;;;;;4.68;3.92;;;22.80;62.70;;;;;;5134506;27;20047;-58
2021/09/26 02:22:57;;;;;;;4.10;3.58;;;22.80;63.30;;;;;;5134302;27;20059;-58
2021/09/26 02:25:23;;;;;;;6.63;3.85;;;22.80;62.70;;;;;;5133702;27;20107;-58
2021/09/26 02:27:50;;;;;;;4.97;3.53;;;22.80;62.70;;;;;;5134000;27;20031;-58
2021/09/26 02:30:17;;;;;;;4.75;3.47;;;22.80;62.60;;;;;;5132860;27;20123;-58
2021/09/26 02:32:44;;;;;;;4.13;3.47;;;22.80;62.70;;;;;;5134132;27;20164;-58
2021/09/26 02:35:11;;;;;;;4.80;3.55;;;22.80;62.70;;;;;;5133391;27;20027;-58
2021/09/26 02:37:37;;;;;;;4.82;3.65;;;22.80;62.60;;;;;;5133885;27;20031;-58
2021/09/26 02:40:07;;;;;;;6.25;3.50;;;22.80;62.60;;;;;;5133311;27;20025;-59
2021/09/26 02:42:53;;;;;;;6.18;3.70;;;22.80;62.60;;;;;;5133852;27;20035;-58
2021/09/26 02:45:58;;;;;;;4.32;3.85;;;22.80;62.60;;;;;;5132942;27;20038;-58
2021/09/26 02:48:30;;;;;;;4.78;3.67;;;22.80;62.60;;;;;;5133841;27;20055;-58
2021/09/26 02:50:57;;;;;;;5.93;3.50;;;22.80;62.60;;;;;;5133873;27;20027;-59
2021/09/26 02:53:25;;;;;;;4.57;3.47;;;22.80;62.60;;;;;;5132574;27;20273;-58
2021/09/26 02:55:51;;;;;;;3.38;3.00;;;22.80;62.60;;;;;;5133553;27;20483;-58
2021/09/26 02:58:17;;;;;;;3.50;2.83;;;22.80;62.70;;;;;;5132397;27;20031;-58
2021/09/26 03:00:46;;;;;;;5.97;3.72;;;22.80;62.60;;;;;;5133562;27;20381;-58
2021/09/26 03:03:15;;;;;;;4.18;3.38;;;22.80;62.70;;;;;;5132588;27;20088;-58
2021/09/26 03:05:43;;;;;;;4.80;3.35;;;22.80;62.60;;;;;;5133518;27;20463;-58
2021/09/26 03:08:09;;;;;;;3.85;3.40;;;22.80;62.60;;;;;;5114225;27;20027;-58
2021/09/26 03:10:36;;;;;;;3.63;3.20;;;22.80;62.60;;;;;;5133303;27;20027;-58
2021/09/26 03:13:02;;;;;;;3.28;2.97;;;22.80;62.60;;;;;;5132248;27;20496;-59
2021/09/26 03:15:28;;;;;;;4.68;3.47;;;22.80;62.60;;;;;;5115395;27;20046;-58
2021/09/26 03:17:54;;;;;;;4.60;3.45;;;22.80;62.70;;;;;;5133123;27;20467;-58
2021/09/26 03:20:20;;;;;;;5.20;3.63;;;22.80;62.60;;;;;;5132175;27;20015;-59
2021/09/26 03:22:46;;;;;;;3.95;3.35;;;22.80;62.60;;;;;;5133404;27;20353;-58
2021/09/26 03:25:12;;;;;;;4.85;3.53;;;22.80;62.60;;;;;;5132038;27;20392;-59
2021/09/26 03:27:38;;;;;;;5.55;3.40;;;22.80;62.60;;;;;;5133105;27;20038;-59
2021/09/26 03:30:04;;;;;;;4.45;3.33;;;22.80;62.60;;;;;;5132191;27;20023;-59
2021/09/26 03:32:30;;;;;;;4.03;3.38;;;22.80;62.60;;;;;;5133042;27;20031;-58
2021/09/26 03:34:55;;;;;;;3.60;2.95;;;22.80;62.60;;;;;;5133459;27;20080;-58
2021/09/26 03:37:21;;;;;;;4.55;3.45;;;22.70;62.60;;;;;;5132117;27;20891;-58
2021/09/26 03:39:47;;;;;;;4.10;3.22;;;22.70;62.60;;;;;;5114829;27;20023;-58
2021/09/26 03:42:12;;;;;;;4.60;3.55;;;22.80;62.60;;;;;;5132154;27;20114;-58
2021/09/26 03:44:38;;;;;;;5.07;3.03;;;22.80;62.60;;;;;;5114622;28;20472;-58
2021/09/26 03:47:04;;;;;;;5.18;3.65;;;22.70;62.50;;;;;;5132055;27;20027;-58
2021/09/26 03:49:30;;;;;;;5.30;3.08;;;22.80;62.50;;;;;;5132598;27;20035;-58
2021/09/26 03:51:56;;;;;;;3.78;3.30;;;22.70;62.50;;;;;;5132654;27;20034;-58
2021/09/26 03:54:22;;;;;;;4.25;3.20;;;22.80;62.60;;;;;;5131974;27;20829;-58
2021/09/26 03:56:48;;;;;;;3.67;3.08;;;22.70;62.50;;;;;;5133141;27;20047;-58
2021/09/26 03:59:15;;;;;;;5.00;3.50;;;22.70;62.50;;;;;;5131786;28;20443;-59
2021/09/26 04:01:41;;;;;;;7.00;4.35;;;22.70;62.50;;;;;;5132658;28;20055;-59
2021/09/26 04:04:07;;;;;;;3.78;2.90;;;22.70;62.50;;;;;;5131872;28;20410;-58
2021/09/26 04:06:33;;;;;;;4.55;3.17;;;22.70;62.50;;;;;;5132305;28;20043;-58
2021/09/26 04:08:59;;;;;;;3.78;3.00;;;22.70;62.60;;;;;;5132007;28;20023;-58
2021/09/26 04:11:25;;;;;;;5.30;3.30;;;22.70;62.60;;;;;;5131849;28;20023;-58
2021/09/26 04:13:50;;;;;;;5.07;4.00;;;22.70;62.60;;;;;;5126661;28;20076;-58
2021/09/26 04:16:16;;;;;;;3.65;3.28;;;22.70;62.50;;;;;;5131549;28;20031;-58
2021/09/26 04:18:42;;;;;;;3.67;2.90;;;22.70;62.50;;;;;;5115778;28;20026;-58
2021/09/26 04:21:08;;;;;;;3.35;2.70;;;22.70;62.50;;;;;;5131733;28;20469;-58
2021/09/26 04:23:34;;;;;;;4.50;3.40;;;22.70;62.50;;;;;;5132513;28;20019;-58
2021/09/26 04:26:00;;;;;;;7.05;3.70;;;22.70;62.40;;;;;;5132132;28;20080;-58
2021/09/26 04:28:25;;;;;;;3.70;3.10;;;22.70;62.40;;;;;;5131569;28;20046;-58
2021/09/26 04:30:51;;;;;;;5.55;3.60;;;22.70;62.40;;;;;;5132726;28;20134;-58
2021/09/26 04:33:17;;;;;;;3.40;3.08;;;22.70;62.50;;;;;;5131369;28;20031;-58
2021/09/26 04:35:42;;;;;;;4.18;3.05;;;22.70;62.50;;;;;;5131894;28;20035;-58
2021/09/26 04:38:08;;;;;;;4.22;3.30;;;22.70;62.50;;;;;;5132871;27;20027;-58
2021/09/26 04:40:34;;;;;;;4.47;3.30;;;22.70;62.50;;;;;;5136907;27;20034;-59
2021/09/26 04:43:01;;;;;;;4.65;3.25;;;22.70;62.50;;;;;;5135984;27;20102;-59
2021/09/26 04:45:27;;;;;;;3.22;2.67;;;22.70;62.50;;;;;;5117100;27;20035;-58
2021/09/26 04:47:53;;;;;;;3.35;2.83;;;22.70;62.40;;;;;;5135613;27;20047;-58
2021/09/26 04:50:18;;;;;;;4.03;3.03;;;22.70;62.40;;;;;;5135520;27;20080;-58
2021/09/26 04:52:44;;;;;;;3.83;2.67;;;22.70;62.50;;;;;;5135897;27;20102;-58
2021/09/26 04:55:10;;;;;;;4.90;3.05;;;22.70;63.10;;;;;;5135482;27;20027;-58
2021/09/26 04:57:36;;;;;;;4.13;3.28;;;22.70;62.40;;;;;;5135724;27;20062;-58
2021/09/26 05:00:04;;;;;;;3.67;3.13;;;22.70;62.40;;;;;;5135274;27;20047;-58
2021/09/26 05:02:30;;;;;;;3.88;2.80;;;22.70;62.40;;;;;;5135415;27;20098;-58
2021/09/26 05:04:56;;;;;;;3.42;2.83;;;22.70;62.30;;;;;;5117681;27;20146;-58
2021/09/26 05:07:21;;;;;;;5.20;3.60;;;22.70;62.40;;;;;;5135020;27;20038;-59
2021/09/26 05:09:47;;;;;;;3.80;3.05;;;22.70;62.30;;;;;;5135536;27;20019;-59
2021/09/26 05:12:13;;;;;;;4.43;3.05;;;22.70;62.30;;;;;;5134531;27;20417;-58
2021/09/26 05:14:38;;;;;;;3.55;3.00;;;22.70;62.30;;;;;;5135517;27;20482;-58
2021/09/26 05:17:06;;;;;;;4.38;3.10;;;22.70;62.30;;;;;;5134929;27;20027;-58
2021/09/26 05:19:32;;;;;;;4.07;3.10;;;22.70;62.30;;;;;;5135579;27;20118;-58
2021/09/26 05:21:58;;;;;;;3.40;2.80;;;22.70;62.30;;;;;;5135223;27;20454;-58
2021/09/26 05:24:23;;;;;;;4.80;3.20;;;22.70;62.30;;;;;;5134329;27;20091;-58
2021/09/26 05:26:49;;;;;;;4.35;3.28;;;22.70;62.30;;;;;;5135312;27;20067;-59
2021/09/26 05:29:15;;;;;;;4.47;2.95;;;22.70;62.30;;;;;;5134873;27;20027;-59
2021/09/26 05:31:40;;;;;;;3.55;2.92;;;22.70;62.30;;;;;;5135221;27;20027;-58
2021/09/26 05:34:06;;;;;;;5.70;2.83;;;22.70;62.30;;;;;;5134721;27;20372;-59
2021/09/26 05:36:32;;;;;;;6.43;2.75;;;22.70;62.30;;;;;;5134951;27;20399;-58
2021/09/26 05:38:57;;;;;;;4.95;3.15;;;22.70;62.40;;;;;;5134994;27;20023;-57
2021/09/26 05:41:24;;;;;;;6.28;4.40;;;22.70;62.30;;;;;;5115488;27;20027;-58
2021/09/26 05:43:50;;;;;;;6.57;4.63;;;22.70;62.30;;;;;;5135940;27;20042;-57
2021/09/26 05:46:16;;;;;;;7.70;4.80;;;22.60;62.30;;;;;;5123837;27;20383;-57
2021/09/26 05:48:41;;;;;;;5.40;4.50;;;22.60;62.50;;;;;;5117504;27;20031;-57
2021/09/26 05:51:07;;;;;;;8.07;4.78;;;22.60;62.50;;;;;;5132073;27;20031;-58
2021/09/26 05:53:33;;;;;;;6.65;4.28;;;22.50;62.50;;;;;;5135423;27;20019;-57
2021/09/26 05:55:59;;;;;;;6.05;4.38;;;22.50;62.60;;;;;;5134874;27;20035;-57
2021/09/26 05:58:25;;;;;;;6.78;4.40;;;22.50;62.50;;;;;;5133750;27;20019;-57
2021/09/26 06:00:50;;;;;;;6.35;5.05;;;22.50;62.50;;;;;;5134525;27;20506;-57
2021/09/26 06:03:16;;;;;;;5.78;4.68;;;22.50;62.60;;;;;;5115847;27;20034;-57
2021/09/26 06:05:42;;;;;;;6.05;4.82;;;22.50;62.70;;;;;;5134901;27;20141;-57
2021/09/26 06:08:08;;;;;;;7.05;4.82;;;22.50;62.70;;;;;;5124578;27;20026;-57
2021/09/26 06:10:34;;;;;;;8.18;4.38;;;22.50;62.70;;;;;;5121333;27;20471;-57
2021/09/26 06:13:00;;;;;;;7.45;4.70;;;22.50;62.80;;;;;;5135717;27;20027;-57
2021/09/26 06:15:26;;;;;;;5.75;4.38;;;22.50;62.80;;;;;;5133582;27;20031;-57
2021/09/26 06:17:51;;;;;;;7.85;4.43;;;22.50;62.90;;;;;;5134396;27;20483;-57
2021/09/26 06:20:17;;;;;;;7.75;4.90;;;22.50;62.90;;;;;;5133811;27;20023;-57
2021/09/26 06:22:43;;;;;;;7.25;4.43;;;22.50;63.00;;;;;;5134230;27;20027;-57
2021/09/26 06:25:09;;;;;;;7.50;4.82;;;22.40;63.10;;;;;;5133053;27;20039;-57
2021/09/26 06:27:36;;;;;;;7.32;4.28;;;22.50;63.20;;;;;;5133721;27;20029;-57
2021/09/26 06:30:04;;;;;;;7.45;4.15;;;22.50;63.10;;;;;;5124948;27;20031;-57
2021/09/26 06:32:31;;;;;;;8.25;4.18;;;22.50;63.20;;;;;;5132113;27;20031;-57
2021/09/26 06:34:58;;;;;;;6.57;4.20;;;22.50;63.30;;;;;;5134307;27;20030;-57
2021/09/26 06:37:24;;;;;;;6.10;3.80;;;22.50;63.70;;;;;;5133131;27;20034;-57
2021/09/26 06:39:50;;;;;;;7.65;4.10;;;22.50;63.50;;;;;;5133950;27;20435;-60
2021/09/26 06:42:16;;;;;;;6.57;4.13;;;22.50;63.90;;;;;;5132866;27;20066;-60
2021/09/26 06:44:42;;;;;;;5.95;3.95;;;22.50;64.00;;;;;;5133623;27;20074;-59
2021/09/26 06:47:09;;;;;;;5.75;4.03;;;22.50;63.90;;;;;;5133311;27;20101;-59
2021/09/26 06:49:35;;;;;;;8.70;4.70;;;22.50;63.80;;;;;;5115907;27;20057;-57
2021/09/26 06:52:00;;;;;;;6.57;4.20;;;22.60;64.10;;;;;;5115345;27;20055;-57
2021/09/26 06:54:26;;;;;;;6.95;4.30;;;22.60;63.60;;;;;;5133277;27;20027;-58
2021/09/26 06:56:52;;;;;;;5.68;3.70;;;22.60;63.90;;;;;;5133351;27;20403;-57
2021/09/26 06:59:17;;;;;;;12.50;4.32;;;22.60;63.80;;;;;;5132794;27;20103;-57
2021/09/26 07:01:44;;;;;;;10.75;4.72;;;22.60;64.10;;;;;;5132276;27;20125;-59
2021/09/26 07:04:12;;;;;;;6.20;3.78;;;22.60;64.30;;;;;;5133566;27;20119;-60
2021/09/26 07:06:39;;;;;;;7.10;4.40;;;22.60;63.80;;;;;;5132911;27;20031;-57
2021/09/26 07:09:09;;;;;;;5.18;3.83;;;22.60;63.80;;;;;;5131148;27;20027;-57
2021/09/26 07:11:35;;;;;;;6.90;3.88;;;22.60;63.90;;;;;;5095466;27;20058;-56
2021/09/26 07:14:01;;;;;;;6.25;4.50;;;22.70;63.80;;;;;;5114504;27;20035;-52
2021/09/26 07:16:27;;;;;;;8.02;4.68;;;22.70;63.90;;;;;;5132623;27;20027;-56
2021/09/26 07:18:53;;;;;;;8.18;4.32;;;22.70;63.80;;;;;;5118078;27;20031;-56
2021/09/26 07:21:19;;;;;;;6.90;4.22;;;22.70;64.00;;;;;;5132992;27;20413;-58
2021/09/26 07:23:45;;;;;;;5.38;4.10;;;22.70;64.00;;;;;;5134286;27;20023;-58
2021/09/26 07:26:13;;;;;;;6.35;4.60;;;22.70;64.00;;;;;;5131854;27;20050;-58
2021/09/26 07:28:39;;;;;;;5.40;4.13;;;22.70;64.10;;;;;;5132772;27;20030;-56
2021/09/26 07:31:05;;;;;;;7.15;4.10;;;22.70;64.20;;;;;;5132827;27;20023;-58
2021/09/26 07:33:31;;;;;;;6.22;4.03;;;22.70;64.30;;;;;;5131740;27;20108;-57
2021/09/26 07:35:57;;;;;;;10.73;5.05;;;22.70;64.40;;;;;;5134217;27;20035;-57
2021/09/26 07:38:23;;;;;;;9.27;4.60;;;22.70;65.10;;;;;;5131832;27;20463;-57
2021/09/26 07:40:49;;;;;;;8.63;4.45;;;22.70;64.60;;;;;;5132530;27;20076;-58
2021/09/26 07:43:14;;;;;;;8.57;4.45;;;22.60;65.20;;;;;;5131588;27;20038;-59
2021/09/26 07:45:40;;;;;;;12.40;5.82;;;22.70;65.00;;;;;;5134714;27;20074;-57
2021/09/26 07:48:06;;;;;;;7.03;5.03;;;22.50;66.40;;;;;;5132777;27;20425;-57
2021/09/26 07:50:32;;;;;;;15.18;5.00;;;22.20;67.50;;;;;;5133647;27;20027;-55
2021/09/26 07:52:58;;;;;;;12.20;5.47;;;22.00;68.00;;;;;;5132819;27;20522;-50
2021/09/26 07:55:24;;;;;;;9.82;4.85;;;22.10;68.20;;;;;;5132700;27;20045;-52
2021/09/26 07:57:50;;;;;;;8.18;5.20;;;22.00;68.50;;;;;;5133510;27;20031;-57
2021/09/26 08:00:17;;;;;;;9.27;5.10;;;22.00;69.00;;;;;;5131910;28;20045;-60
2021/09/26 08:02:42;;;;;;;7.55;4.85;;;22.00;69.10;;;;;;5132602;28;20050;-58
2021/09/26 08:05:09;;;;;;;11.57;5.57;;;22.00;69.10;;;;;;5132581;28;20039;-56
2021/09/26 08:07:36;;;;;;;6.97;5.28;;;21.90;69.20;;;;;;5112970;28;20207;-58
2021/09/26 08:10:03;;;;;;;8.48;4.97;;;21.90;69.30;;;;;;5132463;28;20066;-57
2021/09/26 08:12:29;;;;;;;11.13;5.68;;;22.00;69.40;;;;;;5132077;27;20047;-58
2021/09/26 08:14:55;;;;;;;8.23;5.63;;;22.00;69.30;;;;;;5133061;27;20058;-57
2021/09/26 08:17:21;;;;;;;11.32;5.30;;;22.00;69.40;;;;;;5135317;27;20053;-58
2021/09/26 08:19:47;;;;;;;9.02;5.30;;;22.10;69.00;;;;;;5135815;27;20048;-57
2021/09/26 08:22:19;;;;;;;11.13;5.13;;;22.30;68.90;;;;;;5134908;27;20404;-58
2021/09/26 08:24:45;;;;;;;5.72;4.60;;;22.20;68.70;;;;;;5134954;27;20539;-57
2021/09/26 08:27:13;;;;;;;7.63;4.32;;;22.20;68.90;;;;;;5135624;27;20106;-58
2021/09/26 08:29:39;;;;;;;8.18;3.83;;;22.20;68.60;;;;;;5134678;27;20026;-58
2021/09/26 08:32:05;;;;;;;11.15;4.53;;;22.20;68.50;;;;;;5134720;27;20383;-58
2021/09/26 08:34:31;;;;;;;9.20;4.93;;;22.20;68.30;;;;;;5134479;27;20031;-58
2021/09/26 08:36:57;;;;;;;7.25;4.38;;;22.20;68.60;;;;;;5135286;27;20080;-58
2021/09/26 08:39:23;;;;;;;6.88;4.30;;;22.30;68.90;;;;;;5133972;27;20031;-58
2021/09/26 08:41:53;;;;;;;7.57;4.38;;;22.40;68.00;;;;;;5135290;27;20479;-58
2021/09/26 08:44:27;;;;;;;6.43;4.35;;;22.40;68.00;;;;;;5131705;27;20027;-58
2021/09/26 08:46:57;;;;;;;8.13;4.07;;;22.40;68.40;;;;;;5134933;27;20027;-57
2021/09/26 08:49:24;;;;;;;7.38;4.00;;;22.50;67.90;;;;;;5134317;27;20031;-57
2021/09/26 08:51:52;;;;;;;8.48;4.13;;;22.70;67.30;;;;;;5134999;27;20034;-57
2021/09/26 08:54:19;;;;;;;6.63;4.13;;;22.80;67.20;;;;;;5131698;27;20095;-58
2021/09/26 08:56:45;;;;;;;10.38;4.15;;;22.80;67.20;;;;;;5134639;27;20031;-58
2021/09/26 08:59:12;;;;;;;6.07;3.80;;;22.60;67.60;;;;;;5134700;27;20031;-57
2021/09/26 09:01:38;;;;;;;10.00;4.63;;;22.90;67.10;;;;;;5133492;27;20058;-57
2021/09/26 09:04:04;;;;;;;7.47;4.10;;;22.80;67.30;;;;;;5134689;27;20031;-58
2021/09/26 09:06:44;;;;;;;6.97;4.53;;;22.80;67.60;;;;;;5115402;27;20031;-57
2021/09/26 09:09:28;;;;;;;9.48;3.70;;;22.60;68.10;;;;;;5130827;27;20015;-59
2021/09/26 09:11:58;;;;;;;5.40;4.20;;;22.80;67.60;;;;;;5134749;27;20094;-59
2021/09/26 09:14:24;;;;;;;10.00;4.43;;;22.80;67.30;;;;;;5134678;27;20035;-55
2021/09/26 09:16:55;;;;;;;10.23;4.50;;;22.90;66.80;;;;;;5135419;27;20023;-57
2021/09/26 09:19:23;;;;;;;8.75;4.13;;;23.00;66.40;;;;;;5134990;27;20357;-58
2021/09/26 09:22:06;;;;;;;8.20;4.60;;;23.00;66.60;;;;;;5135706;27;20028;-57
2021/09/26 09:24:39;;;;;;;9.10;4.20;;;23.00;66.30;;;;;;5133576;27;20031;-57
2021/09/26 09:27:05;;;;;;;11.48;4.75;;;23.00;66.10;;;;;;5135276;27;20031;-57
2021/09/26 09:29:36;;;;;;;8.20;4.22;;;23.00;66.40;;;;;;5134573;27;20029;-57
2021/09/26 09:32:01;;;;;;;6.90;4.50;;;23.10;66.10;;;;;;5135405;27;20042;-56
2021/09/26 09:34:32;;;;;;;7.78;4.22;;;23.10;65.60;;;;;;5133646;27;20031;-58
2021/09/26 09:37:27;;;;;;;7.22;3.85;;;23.20;65.40;;;;;;5117063;27;20107;-55
2021/09/26 09:40:15;;;;;;;9.15;4.70;;;23.20;64.60;;;;;;5113275;27;20429;-55
2021/09/26 09:42:47;;;;;;;9.32;5.22;;;23.10;63.90;;;;;;5135001;27;20087;-57
2021/09/26 09:45:22;;;;;;;7.85;5.20;;;23.00;63.90;;;;;;5133813;27;20486;-59
2021/09/26 09:48:01;;;;;;;7.28;5.72;;;23.10;62.90;;;;;;5134967;27;20031;-58
2021/09/26 09:50:38;;;;;;;8.55;5.50;;;22.90;63.60;;;;;;5133960;27;20051;-57
2021/09/26 09:53:04;;;;;;;6.72;5.07;;;23.00;63.90;;;;;;5134834;27;20031;-55
2021/09/26 09:55:30;;;;;;;7.20;5.18;;;23.00;64.20;;;;;;5135742;27;20463;-56
2021/09/26 09:58:18;;;;;;;10.77;5.72;;;23.10;64.30;;;;;;5136785;27;20023;-54
2021/09/26 10:00:55;;;;;;;10.27;5.90;;;22.90;64.20;;;;;;5135417;27;20043;-58
2021/09/26 10:03:42;;;;;;;10.80;5.53;;;22.90;64.40;;;;;;5133672;27;20106;-58
2021/09/26 10:06:23;;;;;;;8.25;5.72;;;22.90;64.20;;;;;;5134412;27;20039;-59
2021/09/26 10:08:50;;;;;;;7.18;5.60;;;22.90;64.10;;;;;;5134464;27;20031;-57
2021/09/26 10:11:15;;;;;;;8.10;5.63;;;22.90;64.80;;;;;;5134242;27;20110;-58
2021/09/26 10:13:41;;;;;;;8.02;5.60;;;22.90;65.00;;;;;;5133807;27;20106;-58
2021/09/26 10:16:11;;;;;;;10.45;5.80;;;23.00;64.60;;;;;;5133841;27;20027;-53
2021/09/26 10:18:38;;;;;;;9.05;6.25;;;23.00;64.60;;;;;;5133753;27;20023;-56
2021/09/26 10:21:06;;;;;;;8.57;5.60;;;23.10;64.60;;;;;;5134467;27;20026;-57
2021/09/26 10:23:33;;;;;;;7.47;5.30;;;23.10;64.80;;;;;;5132947;27;20031;-58
2021/09/26 10:26:00;;;;;;;10.52;5.65;;;23.10;64.80;;;;;;5134168;27;20114;-58
2021/09/26 10:28:29;;;;;;;8.43;6.10;;;23.10;64.80;;;;;;5114963;27;20464;-58
2021/09/26 10:31:03;;;;;;;12.52;5.60;;;23.10;65.00;;;;;;5134231;27;20054;-58
2021/09/26 10:33:31;;;;;;;8.98;6.15;;;23.20;65.10;;;;;;5114318;27;20362;-58
2021/09/26 10:35:59;;;;;;;19.58;5.90;;;23.10;65.20;;;;;;5114108;27;20411;-58
2021/09/26 10:38:26;;;;;;;12.02;5.90;;;23.10;65.70;;;;;;5132709;27;20030;-58
2021/09/26 10:40:52;;;;;;;9.40;5.88;;;23.10;65.70;;;;;;5115065;27;20031;-58
2021/09/26 10:43:27;;;;;;;7.13;5.15;;;23.20;65.70;;;;;;5132335;27;20402;-60
2021/09/26 10:46:13;;;;;;;9.60;5.60;;;23.20;65.50;;;;;;5130555;27;20038;-59
2021/09/26 10:49:07;;;;;;;8.77;5.82;;;23.20;65.70;;;;;;5131710;27;20651;-58
2021/09/26 10:51:58;;;;;;;6.88;5.15;;;23.20;65.70;;;;;;5130704;27;20019;-58
2021/09/26 10:54:27;;;;;;;12.82;6.55;;;23.10;66.40;;;;;;5132208;27;20030;-59
2021/09/26 10:57:18;;;;;;;6.88;5.40;;;23.10;66.50;;;;;;5132916;27;20023;-58
2021/09/26 10:59:52;;;;;;;7.15;5.32;;;23.10;66.00;;;;;;5111174;27;20090;-59
2021/09/26 11:02:21;;;;;;;7.45;5.10;;;23.10;65.90;;;;;;5121826;27;20035;-57
2021/09/26 11:04:51;;;;;;;8.10;5.18;;;23.10;66.50;;;;;;5134484;27;20401;-58
2021/09/26 11:07:27;;;;;;;11.52;5.78;;;23.20;65.80;;;;;;5133178;27;20379;-60
2021/09/26 11:09:55;;;;;;;10.18;5.43;;;23.20;65.70;;;;;;5130531;27;20380;-58
2021/09/26 11:12:39;;;;;;;6.53;4.95;;;23.30;65.50;;;;;;5131166;27;20126;-57
2021/09/26 11:15:12;;;;;;;8.02;4.82;;;23.30;65.40;;;;;;5132453;27;20380;-57
2021/09/26 11:17:43;;;;;;;7.60;4.55;;;23.30;65.10;;;;;;5132195;27;20027;-57
2021/09/26 11:20:11;;;;;;;7.18;4.47;;;23.40;65.10;;;;;;5130330;27;20018;-57
2021/09/26 11:22:37;;;;;;;6.78;5.10;;;23.40;65.10;;;;;;5131527;27;20101;-57
2021/09/26 11:25:04;;;;;;;7.22;4.65;;;23.50;64.80;;;;;;5132485;27;20487;-57
2021/09/26 11:27:36;;;;;;;11.75;5.60;;;23.40;64.90;;;;;;5131024;27;20027;-57
2021/09/26 11:30:01;;;;;;;6.28;5.20;;;23.50;64.90;;;;;;5123281;27;20849;-58
2021/09/26 11:32:33;;;;;;;9.23;5.28;;;23.50;64.60;;;;;;5112301;27;20050;-58
2021/09/26 11:35:06;;;;;;;8.50;4.93;;;23.50;64.60;;;;;;5133971;27;20058;-57
2021/09/26 11:37:38;;;;;;;7.20;4.68;;;23.60;64.60;;;;;;5124551;27;20035;-58
2021/09/26 11:40:07;;;;;;;9.90;5.57;;;23.60;64.90;;;;;;5129350;27;20046;-58
2021/09/26 11:42:36;;;;;;;6.40;4.65;;;23.50;64.50;;;;;;5132221;27;20039;-58
2021/09/26 11:45:07;;;;;;;6.72;4.63;;;23.60;64.70;;;;;;5128856;27;20046;-57
2021/09/26 11:47:33;;;;;;;6.82;5.10;;;23.60;64.60;;;;;;5130811;27;20031;-57
2021/09/26 11:50:08;;;;;;;7.45;5.05;;;23.60;64.90;;;;;;5132280;27;20031;-58
2021/09/26 11:52:40;;;;;;;7.40;4.70;;;23.60;64.80;;;;;;5131396;27;20062;-57
2021/09/26 11:55:07;;;;;;;6.95;4.60;;;23.60;64.90;;;;;;5130100;27;20035;-58
2021/09/26 11:57:33;;;;;;;7.10;4.60;;;23.60;64.80;;;;;;5130656;27;20027;-58
2021/09/26 11:59:58;;;;;;;8.77;4.90;;;23.60;64.90;;;;;;5131776;27;20099;-58
2021/09/26 12:02:24;;;;;;;7.78;4.07;;;23.60;64.80;;;;;;5131066;28;20084;-60
2021/09/26 12:04:50;;;;;;;6.88;5.00;;;23.60;64.60;;;;;;5131129;28;20042;-58
2021/09/26 12:07:16;;;;;;;5.65;4.88;;;23.60;64.80;;;;;;5130833;28;20051;-57
2021/09/26 12:09:47;;;;;;;5.72;4.50;;;23.70;64.80;;;;;;5129878;28;20683;-56
2021/09/26 12:12:19;;;;;;;6.20;4.87;;;23.70;64.70;;;;;;5131733;28;20361;-58
2021/09/26 12:14:48;;;;;;;7.88;4.65;;;23.60;64.80;;;;;;5129554;28;20257;-56
2021/09/26 12:17:25;;;;;;;6.20;4.85;;;23.60;64.80;;;;;;5132141;28;20023;-57
2021/09/26 12:20:06;;;;;;;5.68;4.40;;;23.60;65.00;;;;;;5129864;28;20023;-57
2021/09/26 12:22:32;;;;;;;4.75;4.28;;;23.60;65.20;;;;;;5129847;28;20034;-57
2021/09/26 12:25:26;;;;;;;5.75;4.93;;;23.80;64.60;;;;;;5131612;28;20050;-58
2021/09/26 12:28:21;;;;;;;6.57;4.20;;;23.80;64.40;;;;;;5129641;28;20433;-57
2021/09/26 12:30:51;;;;;;;8.45;4.43;;;23.80;64.50;;;;;;5108792;28;20115;-56
2021/09/26 12:33:19;;;;;;;6.85;4.75;;;23.80;64.50;;;;;;5113403;28;20028;-57
2021/09/26 12:35:56;;;;;;;4.97;4.05;;;23.80;64.30;;;;;;5130696;28;20027;-55
2021/09/26 12:38:54;;;;;;;7.63;4.82;;;23.80;64.30;;;;;;5130831;28;20031;-60
2021/09/26 12:41:20;;;;;;;8.15;4.63;;;23.80;64.20;;;;;;5124870;28;20076;-55
2021/09/26 12:43:58;;;;;;;7.15;3.88;;;23.80;64.80;;;;;;5120195;28;20477;-56
2021/09/26 12:46:33;;;;;;;7.32;4.90;;;23.80;64.60;;;;;;5132864;28;20111;-55
2021/09/26 12:49:00;;;;;;;6.35;4.70;;;23.70;64.70;;;;;;5132148;28;20027;-57
2021/09/26 12:51:33;;;;;;;9.77;5.13;;;23.70;65.40;;;;;;5131171;28;20420;-59
2021/09/26 12:54:03;;;;;;;10.10;5.07;;;23.70;65.60;;;;;;5130860;28;20057;-59